sensor_id;sensor_type;location;lat;lon;timestamp;pressure;altitude;pressure_sealevel;temperature;humidity
61086;BME280;46967;48.876;2.136;2023-02-13T00:00:14;103274.78;;;2.37;84.71
61086;BME280;46967;48.876;2.136;2023-02-13T00:02:39;103268.75;;;2.36;84.58
61086;BME280;46967;48.876;2.136;2023-02-13T00:05:05;103276.09;;;2.28;85.04
61086;BME280;46967;48.876;2.136;2023-02-13T00:07:30;103270.97;;;2.28;85.02
61086;BME280;46967;48.876;2.136;2023-02-13T00:09:56;103273.53;;;2.28;84.82
61086;BME280;46967;48.876;2.136;2023-02-13T00:12:21;103278.56;;;2.25;84.12
61086;BME280;46967;48.876;2.136;2023-02-13T00:14:46;103276.72;;;2.23;84.07
61086;BME280;46967;48.876;2.136;2023-02-13T00:17:12;103269.91;;;2.23;84.20
61086;BME280;46967;48.876;2.136;2023-02-13T00:19:37;103280.09;;;2.22;84.36
61086;BME280;46967;48.876;2.136;2023-02-13T00:22:02;103270.66;;;2.21;84.51
61086;BME280;46967;48.876;2.136;2023-02-13T00:24:28;103275.78;;;2.21;85.12
61086;BME280;46967;48.876;2.136;2023-02-13T00:26:53;103279.22;;;2.21;85.84
61086;BME280;46967;48.876;2.136;2023-02-13T00:29:18;103277.44;;;2.20;85.74
61086;BME280;46967;48.876;2.136;2023-02-13T00:31:44;103284.19;;;2.18;85.77
61086;BME280;46967;48.876;2.136;2023-02-13T00:34:09;103279.16;;;2.20;85.48
61086;BME280;46967;48.876;2.136;2023-02-13T00:36:34;103277.31;;;2.17;85.37
61086;BME280;46967;48.876;2.136;2023-02-13T00:39:00;103274.63;;;2.14;85.68
61086;BME280;46967;48.876;2.136;2023-02-13T00:41:25;103276.31;;;2.13;85.17
61086;BME280;46967;48.876;2.136;2023-02-13T00:43:51;103267.75;;;2.13;84.97
61086;BME280;46967;48.876;2.136;2023-02-13T00:46:16;103272.81;;;2.11;84.80
61086;BME280;46967;48.876;2.136;2023-02-13T00:48:42;103274.41;;;2.09;84.51
61086;BME280;46967;48.876;2.136;2023-02-13T00:51:08;103268.41;;;2.09;84.75
61086;BME280;46967;48.876;2.136;2023-02-13T00:53:34;103269.97;;;2.05;84.80
61086;BME280;46967;48.876;2.136;2023-02-13T00:56:00;103270.78;;;2.04;85.20
61086;BME280;46967;48.876;2.136;2023-02-13T00:58:26;103275.91;;;2.04;85.06
61086;BME280;46967;48.876;2.136;2023-02-13T01:00:53;103272.47;;;2.04;84.61
61086;BME280;46967;48.876;2.136;2023-02-13T01:03:19;103264.50;;;1.97;85.00
61086;BME280;46967;48.876;2.136;2023-02-13T01:05:45;103261.81;;;1.94;85.17
61086;BME280;46967;48.876;2.136;2023-02-13T01:08:11;103261.66;;;1.91;85.50
61086;BME280;46967;48.876;2.136;2023-02-13T01:10:38;103261.66;;;1.91;85.65
61086;BME280;46967;48.876;2.136;2023-02-13T01:13:04;103252.28;;;1.92;85.50
61086;BME280;46967;48.876;2.136;2023-02-13T01:15:29;103260.78;;;1.91;85.40
61086;BME280;46967;48.876;2.136;2023-02-13T01:17:55;103258.16;;;1.89;85.34
61086;BME280;46967;48.876;2.136;2023-02-13T01:20:22;103256.47;;;1.90;85.14
61086;BME280;46967;48.876;2.136;2023-02-13T01:22:48;103255.66;;;1.91;85.35
61086;BME280;46967;48.876;2.136;2023-02-13T01:25:13;103250.47;;;1.89;85.04
61086;BME280;46967;48.876;2.136;2023-02-13T01:27:39;103251.28;;;1.88;84.74
61086;BME280;46967;48.876;2.136;2023-02-13T01:30:05;103262.28;;;1.86;85.12
61086;BME280;46967;48.876;2.136;2023-02-13T01:32:36;103257.75;;;1.80;85.67
61086;BME280;46967;48.876;2.136;2023-02-13T01:35:01;103252.69;;;1.81;85.67
61086;BME280;46967;48.876;2.136;2023-02-13T01:37:27;103257.75;;;1.80;85.79
61086;BME280;46967;48.876;2.136;2023-02-13T01:39:52;103260.16;;;1.77;85.72
61086;BME280;46967;48.876;2.136;2023-02-13T01:42:26;103255.84;;;1.76;85.61
61086;BME280;46967;48.876;2.136;2023-02-13T01:45:03;103259.28;;;1.76;84.77
61086;BME280;46967;48.876;2.136;2023-02-13T01:52:29;103262.22;;;1.66;84.53
61086;BME280;46967;48.876;2.136;2023-02-13T01:54:56;103253.75;;;1.67;84.59
61086;BME280;46967;48.876;2.136;2023-02-13T01:57:24;103254.75;;;1.71;84.42
61086;BME280;46967;48.876;2.136;2023-02-13T02:00:02;103255.69;;;1.73;84.61
61086;BME280;46967;48.876;2.136;2023-02-13T02:02:35;103258.25;;;1.73;84.81
61086;BME280;46967;48.876;2.136;2023-02-13T02:05:02;103256.44;;;1.70;84.76
61086;BME280;46967;48.876;2.136;2023-02-13T02:07:29;103255.44;;;1.67;85.06
61086;BME280;46967;48.876;2.136;2023-02-13T02:09:58;103255.44;;;1.67;85.28
61086;BME280;46967;48.876;2.136;2023-02-13T02:14:52;103246.66;;;1.61;85.31
61086;BME280;46967;48.876;2.136;2023-02-13T02:17:20;103247.41;;;1.59;85.29
61086;BME280;46967;48.876;2.136;2023-02-13T02:20:51;103257.72;;;1.60;85.11
61086;BME280;46967;48.876;2.136;2023-02-13T02:45:51;103254.13;;;1.39;86.04
61086;BME280;46967;48.876;2.136;2023-02-13T02:56:26;103248.94;;;1.37;85.43
61086;BME280;46967;48.876;2.136;2023-02-13T02:59:08;103245.44;;;1.35;85.31
61086;BME280;46967;48.876;2.136;2023-02-13T03:01:54;103245.94;;;1.28;85.36
61086;BME280;46967;48.876;2.136;2023-02-13T03:04:50;103245.66;;;1.22;85.40
61086;BME280;46967;48.876;2.136;2023-02-13T03:07:36;103241.22;;;1.18;86.37
61086;BME280;46967;48.876;2.136;2023-02-13T03:10:09;103241.28;;;1.19;85.66
61086;BME280;46967;48.876;2.136;2023-02-13T03:15:42;103242.94;;;1.19;85.67
61086;BME280;46967;48.876;2.136;2023-02-13T03:18:33;103243.84;;;1.19;85.64
61086;BME280;46967;48.876;2.136;2023-02-13T03:24:24;103245.28;;;1.14;86.45
61086;BME280;46967;48.876;2.136;2023-02-13T03:27:06;103242.00;;;1.17;85.37
61086;BME280;46967;48.876;2.136;2023-02-13T03:29:53;103238.56;;;1.16;85.16
61086;BME280;46967;48.876;2.136;2023-02-13T03:32:39;103234.25;;;1.15;85.52
61086;BME280;46967;48.876;2.136;2023-02-13T03:35:18;103234.25;;;1.15;85.62
61086;BME280;46967;48.876;2.136;2023-02-13T03:38:13;103235.13;;;1.16;85.63
61086;BME280;46967;48.876;2.136;2023-02-13T03:40:48;103235.00;;;1.13;85.95
61086;BME280;46967;48.876;2.136;2023-02-13T03:44:16;103230.59;;;1.10;85.76
61086;BME280;46967;48.876;2.136;2023-02-13T03:46:45;103232.16;;;1.06;85.80
61086;BME280;46967;48.876;2.136;2023-02-13T03:49:17;103240.59;;;1.05;86.02
61086;BME280;46967;48.876;2.136;2023-02-13T03:52:06;103231.16;;;1.04;85.88
61086;BME280;46967;48.876;2.136;2023-02-13T03:54:47;103235.28;;;1.01;85.75
61086;BME280;46967;48.876;2.136;2023-02-13T03:57:35;103235.91;;;0.97;86.05
61086;BME280;46967;48.876;2.136;2023-02-13T04:00:23;103238.63;;;1.00;85.88
61086;BME280;46967;48.876;2.136;2023-02-13T04:02:57;103240.38;;;1.01;85.93
61086;BME280;46967;48.876;2.136;2023-02-13T04:05:28;103246.44;;;1.03;86.07
61086;BME280;46967;48.876;2.136;2023-02-13T04:07:54;103242.16;;;1.02;85.79
61086;BME280;46967;48.876;2.136;2023-02-13T04:10:21;103239.50;;;1.00;85.50
61086;BME280;46967;48.876;2.136;2023-02-13T04:13:13;103232.41;;;0.95;85.50
61086;BME280;46967;48.876;2.136;2023-02-13T04:15:56;103233.00;;;0.89;86.03
61086;BME280;46967;48.876;2.136;2023-02-13T04:18:30;103238.84;;;0.86;85.87
61086;BME280;46967;48.876;2.136;2023-02-13T04:21:00;103239.53;;;0.84;85.67
61086;BME280;46967;48.876;2.136;2023-02-13T04:23:26;103234.34;;;0.82;85.61
61086;BME280;46967;48.876;2.136;2023-02-13T04:25:53;103236.13;;;0.83;85.53
61086;BME280;46967;48.876;2.136;2023-02-13T04:28:20;103234.34;;;0.82;85.60
61086;BME280;46967;48.876;2.136;2023-02-13T04:30:45;103232.69;;;0.83;85.82
61086;BME280;46967;48.876;2.136;2023-02-13T04:33:10;103231.97;;;0.85;85.82
61086;BME280;46967;48.876;2.136;2023-02-13T04:35:36;103230.22;;;0.84;85.97
61086;BME280;46967;48.876;2.136;2023-02-13T04:38:01;103239.63;;;0.85;85.80
61086;BME280;46967;48.876;2.136;2023-02-13T04:40:27;103234.22;;;0.79;85.80
61086;BME280;46967;48.876;2.136;2023-02-13T04:42:52;103239.13;;;0.75;86.17
61086;BME280;46967;48.876;2.136;2023-02-13T04:45:17;103238.06;;;0.71;86.31
61086;BME280;46967;48.876;2.136;2023-02-13T04:47:48;103251.00;;;0.74;86.32
61086;BME280;46967;48.876;2.136;2023-02-13T04:50:14;103238.22;;;0.74;85.79
61086;BME280;46967;48.876;2.136;2023-02-13T04:52:39;103248.44;;;0.74;85.74
61086;BME280;46967;48.876;2.136;2023-02-13T04:55:05;103243.09;;;0.69;86.07
61086;BME280;46967;48.876;2.136;2023-02-13T04:57:30;103241.22;;;0.65;86.20
61086;BME280;46967;48.876;2.136;2023-02-13T04:59:55;103241.53;;;0.71;86.15
61086;BME280;46967;48.876;2.136;2023-02-13T05:02:21;103243.25;;;0.72;85.65
61086;BME280;46967;48.876;2.136;2023-02-13T05:04:46;103249.28;;;0.73;85.39
61086;BME280;46967;48.876;2.136;2023-02-13T05:07:11;103251.00;;;0.74;85.37
61086;BME280;46967;48.876;2.136;2023-02-13T05:09:37;103245.91;;;0.74;85.53
61086;BME280;46967;48.876;2.136;2023-02-13T05:12:02;103244.16;;;0.73;85.62
61086;BME280;46967;48.876;2.136;2023-02-13T05:14:27;103245.44;;;0.65;85.76
61086;BME280;46967;48.876;2.136;2023-02-13T05:16:53;103240.31;;;0.65;85.70
61086;BME280;46967;48.876;2.136;2023-02-13T05:19:18;103244.47;;;0.63;85.83
61086;BME280;46967;48.876;2.136;2023-02-13T05:21:43;103241.84;;;0.61;85.68
61086;BME280;46967;48.876;2.136;2023-02-13T05:24:27;103238.34;;;0.59;85.75
61086;BME280;46967;48.876;2.136;2023-02-13T05:26:52;103234.63;;;0.52;85.89
61086;BME280;46967;48.876;2.136;2023-02-13T05:29:18;103234.63;;;0.52;86.09
61086;BME280;46967;48.876;2.136;2023-02-13T05:31:45;103238.91;;;0.53;85.58
61086;BME280;46967;48.876;2.136;2023-02-13T05:34:10;103242.28;;;0.52;85.52
61086;BME280;46967;48.876;2.136;2023-02-13T05:36:35;103240.59;;;0.53;85.53
61086;BME280;46967;48.876;2.136;2023-02-13T05:39:01;103235.47;;;0.53;85.46
61086;BME280;46967;48.876;2.136;2023-02-13T05:41:26;103243.00;;;0.50;85.77
61086;BME280;46967;48.876;2.136;2023-02-13T05:43:51;103243.69;;;0.47;85.84
61086;BME280;46967;48.876;2.136;2023-02-13T05:46:17;103246.09;;;0.44;85.86
61086;BME280;46967;48.876;2.136;2023-02-13T05:48:42;103248.56;;;0.43;85.85
61086;BME280;46967;48.876;2.136;2023-02-13T05:51:07;103240.03;;;0.42;85.74
61086;BME280;46967;48.876;2.136;2023-02-13T05:53:33;103245.78;;;0.38;85.88
61086;BME280;46967;48.876;2.136;2023-02-13T05:56:00;103240.66;;;0.38;86.18
61086;BME280;46967;48.876;2.136;2023-02-13T05:58:27;103245.78;;;0.38;86.08
61086;BME280;46967;48.876;2.136;2023-02-13T06:00:55;103247.47;;;0.38;86.28
61086;BME280;46967;48.876;2.136;2023-02-13T06:03:21;103252.41;;;0.34;85.99
61086;BME280;46967;48.876;2.136;2023-02-13T06:05:47;103241.50;;;0.37;85.68
61086;BME280;46967;48.876;2.136;2023-02-13T06:08:12;103236.47;;;0.39;85.70
61086;BME280;46967;48.876;2.136;2023-02-13T06:10:37;103238.94;;;0.37;85.27
61086;BME280;46967;48.876;2.136;2023-02-13T06:13:03;103239.72;;;0.36;85.61
61086;BME280;46967;48.876;2.136;2023-02-13T06:15:28;103244.91;;;0.38;85.97
61086;BME280;46967;48.876;2.136;2023-02-13T06:17:53;103237.00;;;0.33;86.12
61086;BME280;46967;48.876;2.136;2023-02-13T06:20:19;103242.88;;;0.30;86.06
61086;BME280;46967;48.876;2.136;2023-02-13T06:22:48;103240.22;;;0.29;86.17
61086;BME280;46967;48.876;2.136;2023-02-13T06:25:13;103250.38;;;0.27;86.35
61086;BME280;46967;48.876;2.136;2023-02-13T06:27:39;103254.56;;;0.27;85.73
61086;BME280;46967;48.876;2.136;2023-02-13T06:30:04;103250.91;;;0.22;85.84
61086;BME280;46967;48.876;2.136;2023-02-13T06:32:30;103254.16;;;0.19;85.91
61086;BME280;46967;48.876;2.136;2023-02-13T06:34:55;103256.72;;;0.19;86.32
61086;BME280;46967;48.876;2.136;2023-02-13T06:37:20;103262.81;;;0.21;86.16
61086;BME280;46967;48.876;2.136;2023-02-13T06:39:46;103260.09;;;0.18;86.16
61086;BME280;46967;48.876;2.136;2023-02-13T06:42:11;103264.25;;;0.16;86.48
61086;BME280;46967;48.876;2.136;2023-02-13T06:44:36;103267.75;;;0.18;86.87
61086;BME280;46967;48.876;2.136;2023-02-13T06:47:02;103270.31;;;0.18;86.57
61086;BME280;46967;48.876;2.136;2023-02-13T06:49:33;103264.38;;;0.19;85.95
61086;BME280;46967;48.876;2.136;2023-02-13T06:51:59;103262.66;;;0.18;85.98
61086;BME280;46967;48.876;2.136;2023-02-13T06:54:24;103262.81;;;0.21;86.54
61086;BME280;46967;48.876;2.136;2023-02-13T06:56:49;103270.41;;;0.20;86.19
61086;BME280;46967;48.876;2.136;2023-02-13T06:59:15;103270.47;;;0.21;85.84
61086;BME280;46967;48.876;2.136;2023-02-13T07:01:40;103276.47;;;0.22;86.03
61086;BME280;46967;48.876;2.136;2023-02-13T07:04:05;103277.41;;;0.24;85.68
61086;BME280;46967;48.876;2.136;2023-02-13T07:06:31;103285.00;;;0.22;85.87
61086;BME280;46967;48.876;2.136;2023-02-13T07:08:56;103279.88;;;0.22;86.08
61086;BME280;46967;48.876;2.136;2023-02-13T07:11:23;103282.50;;;0.24;86.12
61086;BME280;46967;48.876;2.136;2023-02-13T07:13:49;103283.50;;;0.26;86.21
61086;BME280;46967;48.876;2.136;2023-02-13T07:16:15;103288.69;;;0.27;86.60
61086;BME280;46967;48.876;2.136;2023-02-13T07:18:40;103294.50;;;0.25;86.78
61086;BME280;46967;48.876;2.136;2023-02-13T07:21:06;103297.13;;;0.26;86.43
61086;BME280;46967;48.876;2.136;2023-02-13T07:23:32;103291.16;;;0.26;86.37
61086;BME280;46967;48.876;2.136;2023-02-13T07:25:58;103296.19;;;0.24;86.59
61086;BME280;46967;48.876;2.136;2023-02-13T07:28:24;103298.09;;;0.28;86.84
61086;BME280;46967;48.876;2.136;2023-02-13T07:30:50;103298.97;;;0.29;86.65
61086;BME280;46967;48.876;2.136;2023-02-13T07:33:15;103299.22;;;0.33;86.26
61086;BME280;46967;48.876;2.136;2023-02-13T07:35:48;103305.28;;;0.35;86.10
61086;BME280;46967;48.876;2.136;2023-02-13T07:38:14;103300.59;;;0.43;85.81
61086;BME280;46967;48.876;2.136;2023-02-13T07:40:39;103300.66;;;0.45;86.30
61086;BME280;46967;48.876;2.136;2023-02-13T07:43:05;103300.00;;;0.49;86.31
61086;BME280;46967;48.876;2.136;2023-02-13T07:45:30;103299.28;;;0.51;86.21
61086;BME280;46967;48.876;2.136;2023-02-13T07:47:56;103299.44;;;0.54;86.52
61086;BME280;46967;48.876;2.136;2023-02-13T07:50:22;103303.97;;;0.60;86.72
61086;BME280;46967;48.876;2.136;2023-02-13T07:53:01;103296.63;;;0.66;86.64
61086;BME280;46967;48.876;2.136;2023-02-13T07:55:29;103286.56;;;0.69;86.61
61086;BME280;46967;48.876;2.136;2023-02-13T07:57:55;103301.34;;;0.75;86.11
61086;BME280;46967;48.876;2.136;2023-02-13T08:00:21;103289.66;;;0.80;86.77
61086;BME280;46967;48.876;2.136;2023-02-13T08:02:47;103305.41;;;0.88;86.97
61086;BME280;46967;48.876;2.136;2023-02-13T08:05:13;103297.97;;;0.93;87.18
61086;BME280;46967;48.876;2.136;2023-02-13T08:07:38;103298.34;;;1.00;87.46
61086;BME280;46967;48.876;2.136;2023-02-13T08:10:07;103300.38;;;1.07;87.62
61086;BME280;46967;48.876;2.136;2023-02-13T08:12:52;103300.69;;;1.14;87.96
61086;BME280;46967;48.876;2.136;2023-02-13T08:15:17;103297.72;;;1.22;88.53
61086;BME280;46967;48.876;2.136;2023-02-13T08:17:43;103302.31;;;1.30;88.87
61086;BME280;46967;48.876;2.136;2023-02-13T08:20:09;103301.06;;;1.39;88.79
61086;BME280;46967;48.876;2.136;2023-02-13T08:22:35;103303.28;;;1.50;88.94
61086;BME280;46967;48.876;2.136;2023-02-13T08:25:01;103301.00;;;1.56;89.91
61086;BME280;46967;48.876;2.136;2023-02-13T08:27:27;103299.63;;;1.62;90.41
61086;BME280;46967;48.876;2.136;2023-02-13T08:29:54;103308.59;;;1.72;90.87
61086;BME280;46967;48.876;2.136;2023-02-13T08:32:20;103302.13;;;1.80;91.30
61086;BME280;46967;48.876;2.136;2023-02-13T08:34:45;103305.19;;;1.91;91.11
61086;BME280;46967;48.876;2.136;2023-02-13T08:37:10;103303.78;;;1.98;91.16
61086;BME280;46967;48.876;2.136;2023-02-13T08:39:36;103310.97;;;2.05;91.13
61086;BME280;46967;48.876;2.136;2023-02-13T08:42:01;103310.47;;;2.14;90.88
61086;BME280;46967;48.876;2.136;2023-02-13T08:44:26;103307.47;;;2.23;91.24
61086;BME280;46967;48.876;2.136;2023-02-13T08:46:52;103305.13;;;2.27;91.34
61086;BME280;46967;48.876;2.136;2023-02-13T08:49:17;103308.09;;;2.37;91.39
61086;BME280;46967;48.876;2.136;2023-02-13T08:51:43;103310.16;;;2.45;91.57
61086;BME280;46967;48.876;2.136;2023-02-13T08:54:08;103305.44;;;2.54;91.01
61086;BME280;46967;48.876;2.136;2023-02-13T08:56:33;103305.84;;;2.64;91.56
61086;BME280;46967;48.876;2.136;2023-02-13T08:58:59;103317.38;;;2.74;91.76
61086;BME280;46967;48.876;2.136;2023-02-13T09:01:24;103318.56;;;2.82;91.88
61086;BME280;46967;48.876;2.136;2023-02-13T09:03:50;103314.69;;;2.92;92.18
61086;BME280;46967;48.876;2.136;2023-02-13T09:06:16;103309.88;;;2.99;92.32
61086;BME280;46967;48.876;2.136;2023-02-13T09:08:41;103307.84;;;3.12;91.94
61086;BME280;46967;48.876;2.136;2023-02-13T09:11:06;103313.22;;;3.18;92.25
61086;BME280;46967;48.876;2.136;2023-02-13T09:13:33;103309.47;;;3.31;91.93
61086;BME280;46967;48.876;2.136;2023-02-13T09:16:00;103308.06;;;3.39;92.10
61086;BME280;46967;48.876;2.136;2023-02-13T09:18:26;103310.09;;;3.46;91.78
61086;BME280;46967;48.876;2.136;2023-02-13T09:21:04;103311.38;;;3.57;91.58
61086;BME280;46967;48.876;2.136;2023-02-13T09:23:34;103299.03;;;3.70;91.45
61086;BME280;46967;48.876;2.136;2023-02-13T09:26:00;103307.88;;;3.78;91.12
61086;BME280;46967;48.876;2.136;2023-02-13T09:28:26;103306.66;;;3.91;90.72
61086;BME280;46967;48.876;2.136;2023-02-13T09:30:51;103297.41;;;3.96;90.36
61086;BME280;46967;48.876;2.136;2023-02-13T09:33:17;103302.09;;;4.06;90.11
61086;BME280;46967;48.876;2.136;2023-02-13T09:35:42;103298.22;;;4.17;89.82
61086;BME280;46967;48.876;2.136;2023-02-13T09:38:07;103296.91;;;4.29;89.94
61086;BME280;46967;48.876;2.136;2023-02-13T09:46:34;103299.59;;;4.56;89.91
61086;BME280;46967;48.876;2.136;2023-02-13T09:49:20;103300.88;;;4.69;89.51
61086;BME280;46967;48.876;2.136;2023-02-13T09:51:54;103304.59;;;4.77;89.45
61086;BME280;46967;48.876;2.136;2023-02-13T09:54:20;103304.91;;;4.86;89.10
61086;BME280;46967;48.876;2.136;2023-02-13T10:16:23;103294.88;;;6.05;88.85
61086;BME280;46967;48.876;2.136;2023-02-13T10:18:56;103290.22;;;6.23;90.08
61086;BME280;46967;48.876;2.136;2023-02-13T10:21:27;103283.09;;;6.45;89.02
61086;BME280;46967;48.876;2.136;2023-02-13T10:23:59;103285.25;;;6.63;88.89
61086;BME280;46967;48.876;2.136;2023-02-13T10:26:35;103285.59;;;6.75;89.61
61086;BME280;46967;48.876;2.136;2023-02-13T10:29:36;103281.59;;;6.88;88.00
61086;BME280;46967;48.876;2.136;2023-02-13T10:32:27;103274.16;;;7.00;87.25
61086;BME280;46967;48.876;2.136;2023-02-13T10:34:56;103274.44;;;7.11;87.28
61086;BME280;46967;48.876;2.136;2023-02-13T10:37:22;103274.84;;;7.28;87.51
61086;BME280;46967;48.876;2.136;2023-02-13T10:39:50;103275.97;;;7.39;87.52
61086;BME280;46967;48.876;2.136;2023-02-13T10:42:40;103275.41;;;7.54;85.57
61086;BME280;46967;48.876;2.136;2023-02-13T10:50:33;103263.13;;;7.84;82.68
61086;BME280;46967;48.876;2.136;2023-02-13T10:56:05;103258.50;;;8.11;83.38
61086;BME280;46967;48.876;2.136;2023-02-13T10:58:48;103257.94;;;8.28;82.14
61086;BME280;46967;48.876;2.136;2023-02-13T11:04:10;103249.69;;;8.46;81.85
61086;BME280;46967;48.876;2.136;2023-02-13T11:06:40;103245.56;;;8.57;81.44
61086;BME280;46967;48.876;2.136;2023-02-13T11:09:07;103240.59;;;8.68;80.24
61086;BME280;46967;48.876;2.136;2023-02-13T11:11:35;103235.63;;;8.80;80.97
61086;BME280;46967;48.876;2.136;2023-02-13T11:14:21;103241.81;;;8.90;79.71
61086;BME280;46967;48.876;2.136;2023-02-13T11:19:38;103231.44;;;8.88;77.50
61086;BME280;46967;48.876;2.136;2023-02-13T11:22:14;103230.69;;;8.97;77.05
61086;BME280;46967;48.876;2.136;2023-02-13T11:24:42;103230.03;;;9.11;78.08
61086;BME280;46967;48.876;2.136;2023-02-13T11:27:14;103231.81;;;9.15;77.81
61086;BME280;46967;48.876;2.136;2023-02-13T11:29:56;103219.13;;;9.33;76.99
61086;BME280;46967;48.876;2.136;2023-02-13T11:32:30;103221.84;;;9.41;76.79
61086;BME280;46967;48.876;2.136;2023-02-13T11:34:56;103220.22;;;9.49;74.98
61086;BME280;46967;48.876;2.136;2023-02-13T11:39:52;103210.09;;;9.68;74.35
61086;BME280;46967;48.876;2.136;2023-02-13T11:42:23;103206.69;;;9.73;74.96
61086;BME280;46967;48.876;2.136;2023-02-13T11:44:57;103206.78;;;9.81;74.66
61086;BME280;46967;48.876;2.136;2023-02-13T11:47:40;103198.16;;;9.82;74.42
61086;BME280;46967;48.876;2.136;2023-02-13T11:55:31;103194.13;;;10.09;73.50
61086;BME280;46967;48.876;2.136;2023-02-13T11:58:24;103192.66;;;10.32;72.40
61086;BME280;46967;48.876;2.136;2023-02-13T12:01:07;103190.94;;;10.35;71.38
61086;BME280;46967;48.876;2.136;2023-02-13T12:03:32;103180.59;;;10.39;71.02
61086;BME280;46967;48.876;2.136;2023-02-13T12:06:12;103182.38;;;10.48;70.70
61086;BME280;46967;48.876;2.136;2023-02-13T12:08:39;103182.41;;;10.52;70.15
61086;BME280;46967;48.876;2.136;2023-02-13T12:11:38;103172.94;;;10.58;69.34
61086;BME280;46967;48.876;2.136;2023-02-13T12:14:08;103174.72;;;10.63;68.71
61086;BME280;46967;48.876;2.136;2023-02-13T12:16:44;103182.56;;;10.69;68.77
61086;BME280;46967;48.876;2.136;2023-02-13T12:19:15;103157.53;;;10.81;69.17
61086;BME280;46967;48.876;2.136;2023-02-13T12:27:31;103164.63;;;11.08;68.15
61086;BME280;46967;48.876;2.136;2023-02-13T12:46:29;103144.91;;;11.67;64.18
61086;BME280;46967;48.876;2.136;2023-02-13T13:03:48;103134.63;;;11.96;63.08
61086;BME280;46967;48.876;2.136;2023-02-13T13:17:27;103118.16;;;12.33;62.57
61086;BME280;46967;48.876;2.136;2023-02-13T13:22:30;103110.34;;;12.41;62.01
61086;BME280;46967;48.876;2.136;2023-02-13T13:25:08;103111.19;;;12.43;61.78
61086;BME280;46967;48.876;2.136;2023-02-13T13:27:45;103104.28;;;12.29;62.86
61086;BME280;46967;48.876;2.136;2023-02-13T13:30:23;103109.47;;;12.40;61.84
61086;BME280;46967;48.876;2.136;2023-02-13T13:33:13;103105.97;;;12.60;61.77
61086;BME280;46967;48.876;2.136;2023-02-13T13:35:42;103105.13;;;12.56;61.61
61086;BME280;46967;48.876;2.136;2023-02-13T13:38:17;103095.56;;;12.57;60.93
61086;BME280;46967;48.876;2.136;2023-02-13T13:40:58;103094.66;;;12.62;61.06
61086;BME280;46967;48.876;2.136;2023-02-13T13:49:36;103089.50;;;12.55;60.99
61086;BME280;46967;48.876;2.136;2023-02-13T13:52:32;103100.78;;;12.46;61.44
61086;BME280;46967;48.876;2.136;2023-02-13T13:54:59;103093.84;;;12.39;61.06
61086;BME280;46967;48.876;2.136;2023-02-13T13:59:57;103089.50;;;12.33;61.34
61086;BME280;46967;48.876;2.136;2023-02-13T14:11:32;103086.91;;;12.44;61.22
61086;BME280;46967;48.876;2.136;2023-02-13T14:13:58;103084.28;;;12.50;61.25
61086;BME280;46967;48.876;2.136;2023-02-13T14:19:05;103081.69;;;12.36;61.08
61086;BME280;46967;48.876;2.136;2023-02-13T14:21:45;103084.28;;;12.42;60.87
61086;BME280;46967;48.876;2.136;2023-02-13T14:24:11;103082.53;;;12.50;60.55
61086;BME280;46967;48.876;2.136;2023-02-13T14:26:40;103081.69;;;12.41;61.02
61086;BME280;46967;48.876;2.136;2023-02-13T14:29:21;103086.00;;;12.45;60.98
61086;BME280;46967;48.876;2.136;2023-02-13T14:32:13;103070.34;;;12.63;60.19
61086;BME280;46967;48.876;2.136;2023-02-13T14:34:40;103079.91;;;12.64;60.14
61086;BME280;46967;48.876;2.136;2023-02-13T14:37:15;103077.31;;;12.69;59.83
61086;BME280;46967;48.876;2.136;2023-02-13T14:42:36;103076.47;;;12.48;60.57
61086;BME280;46967;48.876;2.136;2023-02-13T14:45:04;103072.13;;;12.50;60.01
61086;BME280;46967;48.876;2.136;2023-02-13T14:47:54;103073.03;;;12.39;59.97
61086;BME280;46967;48.876;2.136;2023-02-13T14:50:28;103078.19;;;12.42;60.58
61086;BME280;46967;48.876;2.136;2023-02-13T14:52:56;103071.28;;;12.45;60.53
61086;BME280;46967;48.876;2.136;2023-02-13T14:55:34;103068.66;;;12.50;60.42
61086;BME280;46967;48.876;2.136;2023-02-13T14:58:18;103072.97;;;12.65;60.17
61086;BME280;46967;48.876;2.136;2023-02-13T15:00:50;103072.97;;;12.60;59.94
61086;BME280;46967;48.876;2.136;2023-02-13T15:03:35;103080.75;;;12.73;59.64
61086;BME280;46967;48.876;2.136;2023-02-13T15:06:09;103071.97;;;12.97;58.81
61086;BME280;46967;48.876;2.136;2023-02-13T15:08:44;103079.66;;;13.37;57.69
61086;BME280;46967;48.876;2.136;2023-02-13T15:11:11;103068.94;;;13.83;55.97
61086;BME280;46967;48.876;2.136;2023-02-13T15:17:12;103069.31;;;14.38;54.42
61086;BME280;46967;48.876;2.136;2023-02-13T15:19:43;103073.25;;;14.82;52.96
61086;BME280;46967;48.876;2.136;2023-02-13T15:22:19;103071.09;;;15.16;51.92
61086;BME280;46967;48.876;2.136;2023-02-13T15:24:47;103069.97;;;15.33;51.25
61086;BME280;46967;48.876;2.136;2023-02-13T15:27:19;103065.34;;;15.52;51.07
61086;BME280;46967;48.876;2.136;2023-02-13T15:30:13;103072.94;;;15.70;49.76
61086;BME280;46967;48.876;2.136;2023-02-13T15:32:41;103074.44;;;15.87;49.19
61086;BME280;46967;48.876;2.136;2023-02-13T15:35:27;103073.81;;;15.68;49.47
61086;BME280;46967;48.876;2.136;2023-02-13T15:37:53;103074.34;;;15.32;50.50
61086;BME280;46967;48.876;2.136;2023-02-13T15:40:31;103077.50;;;14.89;51.54
61086;BME280;46967;48.876;2.136;2023-02-13T15:42:59;103077.19;;;14.36;52.84
61086;BME280;46967;48.876;2.136;2023-02-13T15:45:26;103080.09;;;14.04;53.13
61086;BME280;46967;48.876;2.136;2023-02-13T15:47:52;103082.88;;;13.81;53.76
61086;BME280;46967;48.876;2.136;2023-02-13T15:50:26;103082.06;;;13.69;53.79
61086;BME280;46967;48.876;2.136;2023-02-13T15:52:53;103075.91;;;13.76;53.03
61086;BME280;46967;48.876;2.136;2023-02-13T15:55:24;103068.56;;;14.26;51.94
61086;BME280;46967;48.876;2.136;2023-02-13T15:57:52;103070.75;;;14.70;50.67
61086;BME280;46967;48.876;2.136;2023-02-13T16:02:50;103066.59;;;15.26;49.01
61086;BME280;46967;48.876;2.136;2023-02-13T16:05:17;103070.41;;;15.02;49.54